Vascular Solutions Inc (VASC) Latest Bloomsberg Price


Mffais Ranking #422 Overall / #1 Industry
Industry: Medical Devices

Number of Companies: 102 (Ranking #1620 Overall/#12 Industry)
Inflow: $ 54,132 (K) (Ranking #1270 Overall/#11 Industry)
Outflow: $ -38,667 (K)
Mffais Flow: $ 15,465 (K) (Ranking #422 Overall/#1 Industry)


Receive a FREE weekly executive review of stocks moving into the top 10, taking the top industy spot or moving up within their industry. Sent directly to your Inbox every Saturday. Sign up today and get last week's review immediately sent to you.

We value and respect your privacy. Please read our Terms and Conditions which states our firm commitment to your privacy. Your email address will not be shared with a third party, nor will it be sold or used for purposes other than subscription for the weekly review.

Owner CPOR Shares Action Qty Chg Invested (K) Total Current Value (K)
Pnc Financial Services Group Inc 2016-09-30 432,293 Added More 432,173 $ 18,289 $ 18,294
Lord Abbett Co Llc 2016-09-30 227,168 New Holding 227,168 $ 9,613 $ 9,613
Next Century Growth Investors Llc 2016-09-30 205,530 Added More 152,502 $ 6,453 $ 8,698
Henderson Group Plc 2016-09-30 154,323 Added More 95,824 $ 4,055 $ 6,530
Castleark Management Llc 2016-09-30 93,597 New Holding 93,597 $ 3,961 $ 3,961
Eagle Asset Management Inc 2016-09-30 294,106 Added More 47,206 $ 1,997 $ 12,446
Martingale Asset Management L P 2016-09-30 59,308 Added More 45,200 $ 1,912 $ 2,509
Nationwide Fund Advisors 2016-09-30 80,048 Added More 30,836 $ 1,304 $ 3,387
Driehaus Capital Management Llc 2016-09-30 149,815 Added More 28,632 $ 1,211 $ 6,340
Bessemer Group Inc 2016-09-30 26,054 New Holding 26,054 $ 1,102 $ 1,102
Monroe Bank Trust Mi 2016-09-30 23,984 New Holding 23,984 $ 1,015 $ 1,015
Legal General Group Plc 2016-09-30 14,549 Added More 11,564 $ 489 $ 615
Friedberg Investment Management 2016-09-30 20,110 Added More 9,600 $ 406 $ 851
Zebra Capital Management Llc 2016-09-30 8,369 New Holding 8,369 $ 354 $ 354
Uniplan Investment Counsel Inc 2016-09-30 128,182 Added More 5,362 $ 226 $ 5,424
Parametric Portfolio Associates Llc 2016-09-30 31,768 Added More 5,154 $ 218 $ 1,344
Congress Asset Management Co Ma 2016-09-30 4,595 New Holding 4,595 $ 194 $ 194
Ahl Partners Llp 2016-09-30 4,506 New Holding 4,506 $ 190 $ 190
Td Asset Management Inc 2016-09-30 4,261 New Holding 4,261 $ 180 $ 180
Campbell Newman Asset Management Inc 2016-09-30 4,219 New Holding 4,219 $ 178 $ 178
Trexquant Investment Lp 2016-09-30 4,137 New Holding 4,137 $ 175 $ 175
Envestnet Asset Management Inc 2016-09-30 9,865 Added More 4,006 $ 169 $ 417
First Mercantile Trust Co 2016-09-30 4,242 Added More 2,393 $ 101 $ 179
New York State Teachers Retirement System 2016-09-30 11,599 Added More 1,700 $ 71 $ 490
Eqis Capital Management Inc 2016-09-30 8,197 Added More 1,171 $ 49 $ 346
Rhumbline Advisers 2016-09-30 23,079 Added More 1,110 $ 46 $ 976
Next Financial Group Inc 2016-09-30 1,000 New Holding 1,000 $ 42 $ 42
Thrivent Financial For Lutherans 2016-09-30 8,850 Added More 410 $ 17 $ 374
Comerica Bank 2016-09-30 17,747 Added More 403 $ 17 $ 751
California State Teachers Retirement System 2016-09-30 35,643 Added More 300 $ 12 $ 1,508
Aperio Group Llc 2016-09-30 9,328 Added More 260 $ 11 $ 394
Mason Street Advisors Llc 2016-09-30 3,601 Added More 205 $ 8 $ 152
Lebenthal Asset Management Llc 2016-09-30 205 New Holding 205 $ 8 $ 8
Blackrock Inc 2016-09-30 1,360 Added More 177 $ 7 $ 57
Simplex Trading Llc 2016-09-30 173 New Holding 173 $ 7 $ 7
Creative Planning 2016-09-30 172 New Holding 172 $ 7 $ 7
Sei Investments Co 2016-09-30 162 New Holding 162 $ 6 $ 6
Ftb Advisors Inc 2016-09-30 131 New Holding 131 $ 5 $ 5
Zurcher Kantonalbank Zurich Cantonalbank 2016-09-30 1,152 Added More 129 $ 5 $ 48
Texas Permanent School Fund 2016-09-30 13,325 Added More 43 $ 1 $ 563
Pinebridge Investments L P 2016-09-30 2,225 Added More 23 $ 0 $ 94
American International Group Inc 2016-09-30 12,640 Added More 10 $ 0 $ 534
Redmond Asset Management Llc 2016-09-30 7,652 No Change 0 $ 0 $ 323
Ls Investment Advisors Llc 2016-09-30 714 No Change 0 $ 0 $ 30
Cornerstone Financial Partners Llc 2016-09-30 7,700 No Change 0 $ 0 $ 325
Quadrant Capital Group Llc 2016-09-30 31 No Change 0 $ 0 $ 1
Capital Impact Advisors Llc 2016-09-30 29,709 No Change 0 $ 0 $ 1,257
State Of Tennessee Treasury Department 2016-09-30 13,826 No Change 0 $ 0 $ 585
Cutler Group Lp 2016-09-30 1,500 No Change 0 $ 0 $ 63
Arizona State Retirement System 2016-09-30 9,050 No Change 0 $ 0 $ 382
Thompson Davis Co Inc 2016-09-30 2,040 No Change 0 $ 0 $ 86
Scout Investments Inc 2016-09-30 52,225 No Change 0 $ 0 $ 2,210
Earnest Partners Llc 2016-09-30 1,100 No Change 0 $ 0 $ 46
New York State Common Retirement Fund 2016-09-30 18,000 No Change 0 $ 0 $ 761
Gabelli Funds Llc 2016-09-30 70,000 No Change 0 $ 0 $ 2,962
Tompkins Financial Corp 2016-09-30 120 No Change 0 $ 0 $ 5
First Quadrant L P Ca 2016-09-30 14,200 No Change 0 $ 0 $ 600
Public Sector Pension Investment Board 2016-09-30 11,948 No Change 0 $ 0 $ 505
Ladenburg Thalmann Financial Services Inc 2016-09-30 900 No Change 0 $ 0 $ 38
Msi Financial Services Inc 2016-09-30 466 No Change 0 $ 0 $ 19
Sevenbridge Financial Group Llc 2016-09-30 100 No Change 0 $ 0 $ 4
Teton Advisors Inc 2016-09-30 19,800 No Change 0 $ 0 $ 837
Morgan Dempsey Capital Management Llc 2016-09-30 0 Sold All -42 $ -1 $ 0
Blackrock Investment Management Llc 2016-09-30 74,528 Sold Some -83 $ -3 $ 3,154
Cadence Capital Management Llc 2016-09-30 21,235 Sold Some -150 $ -6 $ 898
Fifth Third Bancorp 2016-09-30 0 Sold All -165 $ -6 $ 0
Advisor Group Inc 2016-09-30 105 Sold Some -198 $ -8 $ 4
Mairs Power Inc 2016-09-30 75,453 Sold Some -200 $ -8 $ 3,193
Capstone Asset Management Co 2016-09-30 9,330 Sold Some -250 $ -10 $ 394
Group One Trading L P 2016-09-30 0 Sold All -300 $ -12 $ 0
Us Bancorp De 2016-09-30 1,425 Sold Some -332 $ -14 $ 60
Dimensional Fund Advisors Lp 2016-09-30 613,263 Sold Some -500 $ -21 $ 25,953
Teachers Advisors Inc 2016-09-30 230,233 Sold Some -590 $ -24 $ 9,743
Strs Ohio 2016-09-30 14,900 Sold Some -600 $ -25 $ 630
Northern Trust Corp 2016-09-30 216,127 Sold Some -754 $ -31 $ 9,146
Swiss National Bank 2016-09-30 27,963 Sold Some -1,000 $ -42 $ 1,183
Tower Research Capital Llc Trc 2016-09-30 0 Sold All -1,024 $ -43 $ 0
Bb T Corp 2016-09-30 7,140 Sold Some -1,485 $ -62 $ 302
Teachers Retirement System Of The State Of Kentucky 2016-09-30 33,712 Sold Some -1,863 $ -78 $ 1,426
Panagora Asset Management Inc 2016-09-30 888 Sold Some -1,982 $ -83 $ 37
Argent Capital Management Llc 2016-09-30 107,500 Sold Some -2,060 $ -87 $ 4,549
Isthmus Partners Llc 2016-09-30 21,093 Sold Some -2,135 $ -90 $ 892
Teacher Retirement System Of Texas 2016-09-30 0 Sold All -2,368 $ -100 $ 0
Menta Capital Llc 2016-09-30 5,572 Sold Some -2,419 $ -102 $ 235
Gamco Investors Inc Et Al 2016-09-30 208,300 Sold Some -3,500 $ -148 $ 8,815
Eam Investors Llc 2016-09-30 89,447 Sold Some -5,058 $ -214 $ 3,785
Guggenheim Capital Llc 2016-09-30 40,700 Sold Some -5,557 $ -235 $ 1,722
Gsa Capital Partners Llp 2016-09-30 60,311 Sold Some -8,815 $ -373 $ 2,552
Stifel Financial Corp 2016-09-30 159,768 Sold Some -11,101 $ -469 $ 6,761
United Services Automobile Association 2016-09-30 17,468 Sold Some -12,720 $ -538 $ 739
Alphaone Investment Services Llc 2016-09-30 80,953 Sold Some -13,523 $ -572 $ 3,425
Ruffer Llp 2016-09-30 20,000 Sold Some -15,000 $ -634 $ 846
Arbor Capital Management Llc 2016-06-30 84,477 Sold Some -34,279 $ -1,428 $ 3,519
Falcon Point Capital Llc 2016-09-30 0 Sold All -42,579 $ -1,801 $ 0
Kennedy Capital Management Inc 2016-09-30 0 Sold All -50,497 $ -2,137 $ 0
Thomson Horstmann Bryant Inc 2016-09-30 231,262 Sold Some -50,558 $ -2,139 $ 9,787
Emerald Acquisition Ltd 2016-09-30 51,117 Sold Some -64,976 $ -2,749 $ 2,163
Granahan Investment Management Inc Ma 2016-09-30 91,274 Sold Some -71,372 $ -3,020 $ 3,862
Ranger Investment Management L P 2016-09-30 295,415 Sold Some -80,767 $ -3,418 $ 12,501
Kalmar Investments Inc De 2016-09-30 144,735 Sold Some -92,950 $ -3,933 $ 6,125
Conestoga Capital Advisors Llc 2016-09-30 912,176 Sold Some -147,935 $ -6,260 $ 38,603
Ami Asset Management Corp 2016-09-30 89,979 Sold Some -182,536 $ -7,724 $ 3,807